Time;durP1;ratioP1;P1;durP2;ratioP2;P2;SDS_P1;SDS_P2;PMS_P1;PMS_P2;Temp;Humidity;BMP_temperature;BMP_pressure;BME280_temperature;BME280_humidity;BME280_pressure;Samples;Min_cycle;Max_cycle;Signal;HPM_P1;HPM_P2
2023/02/07 10:01:31;;;;;;;;;;;;;;;;;;4983294;28;19984;-92
2023/02/07 10:03:56;;;;;;;;;;;;;;;;;;4974578;28;19922;-93
2023/02/07 10:06:26;;;;;;;;;;;;;;;;;;4975183;28;20327;-91
2023/02/07 10:08:53;;;;;;;;;;;;;;;;;;4974520;28;19980;-93
2023/02/07 10:11:45;;;;;;;;;;;;;;;;;;4975016;28;19923;-94
2023/02/07 10:14:29;;;;;;;;;;;;;;;;;;4959853;28;19918;-93
2023/02/07 10:16:55;;;;;;;;;;;;;;;;;;4974915;28;20496;-93
2023/02/07 10:19:38;;;;;;;;;;;;;;;;;;4974813;28;19961;-94
2023/02/07 10:22:24;;;;;;;;;;;;;;;;;;4975291;28;19918;-93
2023/02/07 10:24:55;;;;;;;;;;;;;;;;;;4974734;28;19925;-93
2023/02/07 10:27:31;;;;;;;;;;;;;;;;;;4974730;28;19925;-93
2023/02/07 10:30:22;;;;;;;;;;;;;;;;;;4974717;28;19918;-93
2023/02/07 10:32:48;;;;;;;;;;;;;;;;;;4972908;28;19919;-89
2023/02/07 10:35:17;;;;;;;;;;;;;;;;;;4975955;28;20373;-93
2023/02/07 10:37:43;;;;;;;;;;;;;;;;;;4974574;28;19968;-92
2023/02/07 10:40:11;;;;;;;;;;;;;;;;;;4974477;28;19961;-90
2023/02/07 10:42:38;;;;;;;;;;;;;;;;;;4974609;28;19918;-94
2023/02/07 10:45:04;;;;;;;;;;;;;;;;;;4976017;28;19958;-91
2023/02/07 10:47:32;;;;;;;;;;;;;;;;;;4978435;28;19918;-93
2023/02/07 10:49:58;;;;;;;;;;;;;;;;;;4978818;28;19922;-91
2023/02/07 10:52:28;;;;;;;;;;;;;;;;;;4980182;28;19918;-89
2023/02/07 10:54:58;;;;;;;;;;;;;;;;;;4983900;28;19918;-90
2023/02/07 10:57:24;;;;;;;;;;;;;;;;;;4981829;28;19961;-92
2023/02/07 10:59:56;;;;;;;;;;;;;;;;;;4979185;28;19925;-94
2023/02/07 11:02:25;;;;;;;;;;;;;;;;;;4978128;28;20046;-93
2023/02/07 11:04:50;;;;;;;;;;;;;;;;;;4978835;28;19918;-90
2023/02/07 11:07:16;;;;;;;;;;;;;;;;;;4977581;28;20432;-93
2023/02/07 11:09:41;;;;;;;;;;;;;;;;;;4978711;28;19919;-95
2023/02/07 11:12:20;;;;;;;;;;;;;;;;;;4981865;28;19918;-93
2023/02/07 11:15:03;;;;;;;;;;;;;;;;;;4979346;28;19925;-90
2023/02/07 11:17:30;;;;;;;;;;;;;;;;;;4980188;28;19917;-91
2023/02/07 11:19:55;;;;;;;;;;;;;;;;;;4979114;28;19918;-94
2023/02/07 11:22:22;;;;;;;;;;;;;;;;;;4979446;28;20009;-96
2023/02/07 11:24:49;;;;;;;;;;;;;;;;;;4980565;28;19918;-95
2023/02/07 11:27:16;;;;;;;;;;;;;;;;;;4977787;28;19918;-91
2023/02/07 11:29:49;;;;;;;;;;;;;;;;;;4977170;28;19918;-88
2023/02/07 11:32:15;;;;;;;;;;;;;;;;;;4978157;28;20001;-86
2023/02/07 11:34:51;;;;;;;;;;;;;;;;;;4976684;28;19958;-87
2023/02/07 11:37:31;;;;;;;;;;;;;;;;;;4977784;28;19918;-88
2023/02/07 11:40:15;;;;;;;;;;;;;;;;;;4977630;28;19957;-88
2023/02/07 11:42:40;;;;;;;;;;;;;;;;;;4976676;28;19918;-89
2023/02/07 11:45:12;;;;;;;;;;;;;;;;;;4977819;28;20369;-88
2023/02/07 11:47:40;;;;;;;;;;;;;;;;;;4976429;28;19922;-88
2023/02/07 11:50:06;;;;;;;;;;;;;;;;;;4977519;28;19957;-87
2023/02/07 11:52:32;;;;;;;;;;;;;;;;;;4977819;28;20035;-89
2023/02/07 11:55:00;;;;;;;;;;;;;;;;;;4976163;28;19925;-87
2023/02/07 11:57:28;;;;;;;;;;;;;;;;;;4976237;28;20000;-90
2023/02/07 11:59:54;;;;;;;;;;;;;;;;;;4976329;28;19970;-87
2023/02/07 12:02:22;;;;;;;;;;;;;;;;;;4977833;28;19926;-87
2023/02/07 12:04:47;;;;;;;;;;;;;;;;;;4976572;28;19957;-90
2023/02/07 12:07:24;;;;;;;;;;;;;;;;;;4977931;28;19957;-89
2023/02/07 12:09:58;;;;;;;;;;;;;;;;;;4977704;28;19924;-90
2023/02/07 12:12:42;;;;;;;;;;;;;;;;;;4976365;28;19925;-90
2023/02/07 12:15:17;;;;;;;;;;;;;;;;;;4977672;28;20099;-88
2023/02/07 12:18:02;;;;;;;;;;;;;;;;;;4977626;28;19918;-89
2023/02/07 12:20:30;;;;;;;;;;;;;;;;;;4969341;28;20446;-93
2023/02/07 12:23:02;;;;;;;;;;;;;;;;;;4975801;28;19926;-89
2023/02/07 12:25:31;;;;;;;;;;;;;;;;;;4976167;28;19918;-89
2023/02/07 12:27:59;;;;;;;;;;;;;;;;;;4976676;28;19918;-87
2023/02/07 12:30:30;;;;;;;;;;;;;;;;;;4977690;28;19989;-87
2023/02/07 12:33:02;;;;;;;;;;;;;;;;;;4976065;28;19924;-86
2023/02/07 12:35:35;;;;;;;;;;;;;;;;;;4975383;28;20337;-89
2023/02/07 12:38:04;;;;;;;;;;;;;;;;;;4975336;28;19914;-88
2023/02/07 12:40:29;;;;;;;;;;;;;;;;;;4976515;28;19933;-88
2023/02/07 12:43:17;;;;;;;;;;;;;;;;;;4975378;28;19914;-88
2023/02/07 12:45:43;;;;;;;;;;;;;;;;;;4976513;28;19942;-87
2023/02/07 12:48:18;;;;;;;;;;;;;;;;;;4975178;28;19918;-88
2023/02/07 18:18:50;;;;;;;;;;;;;;;;;;4979536;28;20005;-81
2023/02/07 18:21:15;;;;;;;;;;;;;;;;;;4974018;28;19961;-82
2023/02/07 18:23:41;;;;;;;;;;;;;;;;;;4973724;28;19961;-81
2023/02/07 18:26:08;;;;;;;;;;;;;;;;;;4973664;28;20380;-79
2023/02/07 18:28:34;;;;;;;;;;;;;;;;;;4973817;28;19919;-79
2023/02/07 18:30:59;;;;;;;;;;;;;;;;;;4974882;28;19974;-83
2023/02/07 18:33:24;;;;;;;;;;;;;;;;;;4973568;28;19922;-79
2023/02/07 18:35:55;;;;;;;;;;;;;;;;;;4973432;28;20339;-81
2023/02/07 18:38:20;;;;;;;;;;;;;;;;;;4974900;28;19924;-81
2023/02/07 18:40:45;;;;;;;;;;;;;;;;;;4973711;28;19918;-82
2023/02/07 18:43:10;;;;;;;;;;;;;;;;;;4973622;28;19965;-80
2023/02/07 18:45:40;;;;;;;;;;;;;;;;;;4974737;28;19973;-81
2023/02/07 18:48:05;;;;;;;;;;;;;;;;;;4975109;28;19918;-82
2023/02/07 18:50:30;;;;;;;;;;;;;;;;;;4975147;28;20277;-79
2023/02/07 18:52:56;;;;;;;;;;;;;;;;;;4975110;28;20276;-80
2023/02/07 18:55:21;;;;;;;;;;;;;;;;;;4974799;28;19919;-80
2023/02/07 18:57:46;;;;;;;;;;;;;;;;;;4975016;28;19922;-81
2023/02/07 19:00:12;;;;;;;;;;;;;;;;;;4974991;28;20300;-82
2023/02/07 19:02:37;;;;;;;;;;;;;;;;;;4974843;28;20017;-80
2023/02/07 19:05:03;;;;;;;;;;;;;;;;;;4974825;28;20373;-80
2023/02/07 19:07:28;;;;;;;;;;;;;;;;;;4978501;28;20369;-81
2023/02/07 19:09:53;;;;;;;;;;;;;;;;;;4978164;28;19918;-80
2023/02/07 19:12:19;;;;;;;;;;;;;;;;;;4977994;28;19926;-81
2023/02/07 19:14:44;;;;;;;;;;;;;;;;;;4978156;28;19918;-80
2023/02/07 19:17:09;;;;;;;;;;;;;;;;;;4978242;28;20094;-84
2023/02/07 19:19:35;;;;;;;;;;;;;;;;;;4976716;28;19918;-81
2023/02/07 19:22:00;;;;;;;;;;;;;;;;;;4978070;28;19953;-80
2023/02/07 19:24:26;;;;;;;;;;;;;;;;;;4978024;28;19918;-81
2023/02/07 19:26:52;;;;;;;;;;;;;;;;;;4978096;28;19925;-79
2023/02/07 19:29:19;;;;;;;;;;;;;;;;;;4977965;28;19918;-80
2023/02/07 19:31:44;;;;;;;;;;;;;;;;;;4978084;28;19926;-80
2023/02/07 19:34:10;;;;;;;;;;;;;;;;;;4978192;28;19922;-79
2023/02/07 19:36:36;;;;;;;;;;;;;;;;;;4977752;28;19914;-80
2023/02/07 19:39:01;;;;;;;;;;;;;;;;;;4977676;28;19965;-80
2023/02/07 19:41:27;;;;;;;;;;;;;;;;;;4976606;28;19918;-80
2023/02/07 19:43:53;;;;;;;;;;;;;;;;;;4977703;28;20281;-80
2023/02/07 19:46:19;;;;;;;;;;;;;;;;;;4976325;28;19922;-80
2023/02/07 19:48:44;;;;;;;;;;;;;;;;;;4977434;28;20373;-80
2023/02/07 19:51:14;;;;;;;;;;;;;;;;;;4977466;28;19918;-81
2023/02/07 19:53:40;;;;;;;;;;;;;;;;;;4977708;28;19918;-81
2023/02/07 19:56:10;;;;;;;;;;;;;;;;;;4977610;28;20361;-80
2023/02/07 19:58:37;;;;;;;;;;;;;;;;;;4977364;28;19954;-80
2023/02/07 20:01:02;;;;;;;;;;;;;;;;;;4977257;28;19925;-80
2023/02/07 20:03:28;;;;;;;;;;;;;;;;;;4977526;28;20301;-81
2023/02/07 20:05:53;;;;;;;;;;;;;;;;;;4977197;28;19953;-81
2023/02/07 20:08:19;;;;;;;;;;;;;;;;;;4977327;28;20367;-81
2023/02/07 20:10:45;;;;;;;;;;;;;;;;;;4977440;28;19919;-80
2023/02/07 20:13:11;;;;;;;;;;;;;;;;;;4977248;28;19918;-80
2023/02/07 20:15:40;;;;;;;;;;;;;;;;;;4975639;28;19918;-81
2023/02/07 20:18:06;;;;;;;;;;;;;;;;;;4976820;28;20017;-80
2023/02/07 20:20:31;;;;;;;;;;;;;;;;;;4977210;28;20340;-81
2023/02/07 20:22:56;;;;;;;;;;;;;;;;;;4976484;28;20016;-81
2023/02/07 20:25:22;;;;;;;;;;;;;;;;;;4977012;28;19960;-81
2023/02/07 20:27:47;;;;;;;;;;;;;;;;;;4977046;28;19925;-81
2023/02/07 20:30:12;;;;;;;;;;;;;;;;;;4977040;28;19919;-80
2023/02/07 20:32:38;;;;;;;;;;;;;;;;;;4976590;28;19918;-81
2023/02/07 20:35:03;;;;;;;;;;;;;;;;;;4975367;28;20384;-82
2023/02/07 20:37:28;;;;;;;;;;;;;;;;;;4976907;28;19918;-82
2023/02/07 20:39:54;;;;;;;;;;;;;;;;;;4976671;28;19918;-82
2023/02/07 20:42:19;;;;;;;;;;;;;;;;;;4975496;28;19924;-80
2023/02/07 20:44:44;;;;;;;;;;;;;;;;;;4976403;28;19914;-80
2023/02/07 20:47:10;;;;;;;;;;;;;;;;;;4976575;28;19918;-81
2023/02/07 20:49:37;;;;;;;;;;;;;;;;;;4976839;28;19922;-80
2023/02/07 20:52:02;;;;;;;;;;;;;;;;;;4976390;28;19926;-81
2023/02/07 20:54:28;;;;;;;;;;;;;;;;;;4976367;28;20285;-81
2023/02/07 20:56:54;;;;;;;;;;;;;;;;;;4976575;28;19925;-80
2023/02/07 20:59:24;;;;;;;;;;;;;;;;;;4976208;28;19918;-80
2023/02/07 21:01:49;;;;;;;;;;;;;;;;;;4975543;28;19918;-80
2023/02/07 21:04:15;;;;;;;;;;;;;;;;;;4976271;28;19959;-80
2023/02/07 21:06:43;;;;;;;;;;;;;;;;;;4976163;28;19918;-81
2023/02/07 21:09:09;;;;;;;;;;;;;;;;;;4976002;28;19941;-81
2023/02/07 21:11:37;;;;;;;;;;;;;;;;;;4976002;28;19922;-79
2023/02/07 21:14:05;;;;;;;;;;;;;;;;;;4975827;28;19954;-80
2023/02/07 21:16:30;;;;;;;;;;;;;;;;;;4976001;28;20017;-80
2023/02/07 21:18:58;;;;;;;;;;;;;;;;;;4975178;28;20211;-80
2023/02/07 21:21:23;;;;;;;;;;;;;;;;;;4975876;28;20004;-80
2023/02/07 21:23:49;;;;;;;;;;;;;;;;;;4974578;28;20385;-84
2023/02/07 21:26:15;;;;;;;;;;;;;;;;;;4975377;28;19918;-82
2023/02/07 21:28:40;;;;;;;;;;;;;;;;;;4975228;28;19985;-80
2023/02/07 21:31:07;;;;;;;;;;;;;;;;;;4974537;28;20262;-83
2023/02/07 21:33:32;;;;;;;;;;;;;;;;;;4976045;28;19918;-82
2023/02/07 21:36:05;;;;;;;;;;;;;;;;;;4975971;28;19941;-82
2023/02/07 21:38:30;;;;;;;;;;;;;;;;;;4976078;28;20005;-80
2023/02/07 21:40:56;;;;;;;;;;;;;;;;;;4976131;28;20333;-81
2023/02/07 21:43:21;;;;;;;;;;;;;;;;;;4976078;28;20017;-82
2023/02/07 21:45:46;;;;;;;;;;;;;;;;;;4975689;28;20370;-83
2023/02/07 21:48:11;;;;;;;;;;;;;;;;;;4975698;28;20274;-81
2023/02/07 21:50:37;;;;;;;;;;;;;;;;;;4975600;28;20065;-80
2023/02/07 21:53:02;;;;;;;;;;;;;;;;;;4975326;28;19918;-80
2023/02/07 21:55:28;;;;;;;;;;;;;;;;;;4975436;28;20266;-80
2023/02/07 21:57:53;;;;;;;;;;;;;;;;;;4974192;28;19914;-80
2023/02/07 22:00:18;;;;;;;;;;;;;;;;;;4975296;28;19925;-80
2023/02/07 22:02:44;;;;;;;;;;;;;;;;;;4975305;28;19987;-82
2023/02/07 22:05:09;;;;;;;;;;;;;;;;;;4975321;28;19914;-80
2023/02/07 22:07:35;;;;;;;;;;;;;;;;;;4975445;28;19918;-81
2023/02/07 22:10:00;;;;;;;;;;;;;;;;;;4975304;28;19961;-82
2023/02/07 22:12:25;;;;;;;;;;;;;;;;;;4973858;28;19918;-81
2023/02/07 22:14:50;;;;;;;;;;;;;;;;;;4975364;28;19933;-81
2023/02/07 22:17:17;;;;;;;;;;;;;;;;;;4975259;28;19961;-80
2023/02/07 22:19:43;;;;;;;;;;;;;;;;;;4975101;28;19922;-81
2023/02/07 22:22:08;;;;;;;;;;;;;;;;;;4975125;28;20348;-80
2023/02/07 22:24:33;;;;;;;;;;;;;;;;;;4975215;28;20043;-80
2023/02/07 22:26:59;;;;;;;;;;;;;;;;;;4975028;28;20438;-80
2023/02/07 22:29:24;;;;;;;;;;;;;;;;;;4973763;28;19925;-80
2023/02/07 22:31:50;;;;;;;;;;;;;;;;;;4975210;28;19961;-80
2023/02/07 22:34:15;;;;;;;;;;;;;;;;;;4975167;28;19918;-80
2023/02/07 22:36:42;;;;;;;;;;;;;;;;;;4973684;28;19913;-80
2023/02/07 22:39:07;;;;;;;;;;;;;;;;;;4974965;28;19918;-81
2023/02/07 22:41:33;;;;;;;;;;;;;;;;;;4977515;28;19920;-81
2023/02/07 22:44:01;;;;;;;;;;;;;;;;;;4978944;28;19924;-81
2023/02/07 22:46:27;;;;;;;;;;;;;;;;;;4977566;28;19918;-81
2023/02/07 22:48:53;;;;;;;;;;;;;;;;;;4978746;28;20001;-81
2023/02/07 22:51:23;;;;;;;;;;;;;;;;;;4978764;28;20365;-80
2023/02/07 22:53:49;;;;;;;;;;;;;;;;;;4977323;28;19925;-81
2023/02/07 22:56:14;;;;;;;;;;;;;;;;;;4978700;28;20008;-80
2023/02/07 22:58:40;;;;;;;;;;;;;;;;;;4978593;28;19918;-80
2023/02/07 23:01:06;;;;;;;;;;;;;;;;;;4978441;28;19918;-80
2023/02/07 23:03:32;;;;;;;;;;;;;;;;;;4978542;28;20368;-80
2023/02/07 23:06:01;;;;;;;;;;;;;;;;;;4978249;28;19925;-80
2023/02/07 23:08:26;;;;;;;;;;;;;;;;;;4978513;28;20001;-79
2023/02/07 23:10:52;;;;;;;;;;;;;;;;;;4978240;28;19961;-80
2023/02/07 23:13:18;;;;;;;;;;;;;;;;;;4978078;28;19925;-80
2023/02/07 23:15:47;;;;;;;;;;;;;;;;;;4976820;28;19918;-79
2023/02/07 23:18:14;;;;;;;;;;;;;;;;;;4978182;28;19922;-80
2023/02/07 23:20:41;;;;;;;;;;;;;;;;;;4978282;28;19926;-80
2023/02/07 23:23:06;;;;;;;;;;;;;;;;;;4978141;28;19918;-80
2023/02/07 23:25:32;;;;;;;;;;;;;;;;;;4977716;28;19925;-80
2023/02/07 23:27:57;;;;;;;;;;;;;;;;;;4977983;28;19918;-80
2023/02/07 23:30:22;;;;;;;;;;;;;;;;;;4977956;28;19922;-79
2023/02/07 23:32:48;;;;;;;;;;;;;;;;;;4976479;28;19918;-80
2023/02/07 23:35:13;;;;;;;;;;;;;;;;;;4978079;28;20357;-80
2023/02/07 23:37:38;;;;;;;;;;;;;;;;;;4978004;28;19918;-80
2023/02/07 23:40:04;;;;;;;;;;;;;;;;;;4977702;28;19933;-80
2023/02/07 23:42:29;;;;;;;;;;;;;;;;;;4977666;28;19918;-80
2023/02/07 23:44:54;;;;;;;;;;;;;;;;;;4977624;28;20506;-80
2023/02/07 23:47:20;;;;;;;;;;;;;;;;;;4976715;28;19918;-81
2023/02/07 23:49:45;;;;;;;;;;;;;;;;;;4977902;28;20309;-80
2023/02/07 23:52:11;;;;;;;;;;;;;;;;;;4977038;28;20283;-81
2023/02/07 23:54:36;;;;;;;;;;;;;;;;;;4978026;28;19925;-83
2023/02/07 23:57:01;;;;;;;;;;;;;;;;;;4977733;28;20333;-84
